Time;durP1;ratioP1;P1;durP2;ratioP2;P2;SDS_P1;SDS_P2;PMS_P1;PMS_P2;Temp;Humidity;BMP_temperature;BMP_pressure;BME280_temperature;BME280_humidity;BME280_pressure;Samples;Min_cycle;Max_cycle;Signal;HPM_P1;HPM_P2
2022/11/10 12:51:29;;;;;;;;;;;;;;;;;;;;;
2022/11/10 14:38:51;;;;;;;;;7.33;7.33;;;;;18.19;46.87;102449.19;6326198;22;45795;-86
2022/11/10 15:09:45;;;;;;;;;;;;;;;;;;;;;
2022/11/10 15:12:36;;;;;;;;;;;;;;;;;;;;;
2022/11/10 15:29:06;;;;;;;;;7.00;7.00;;;;;15.20;55.92;102453.13;6098582;23;45470;-87
2022/11/10 20:36:28;;;;;;;;;10.00;10.00;;;;;12.42;66.52;102587.53;6331077;22;45739;-82
2022/11/10 20:38:56;;;;;;;;;14.00;11.75;;;;;12.68;66.36;102648.78;6262465;22;45644;-80
2022/11/10 20:44:54;;;;;;;;;30.50;26.25;;;;;12.40;67.08;102598.91;6339605;22;45444;-79
2022/11/10 20:47:50;;;;;;;;;;;;;;;;;;;;;
2022/11/10 20:50:18;;;;;;;;;10.50;10.25;;;;;12.42;66.38;102590.16;6335780;22;73706;-81
2022/11/10 20:52:44;;;;;;;;;31.25;27.50;;;;;12.61;66.38;102619.56;6341158;22;45238;-80
2022/11/10 20:55:11;;;;;;;;;37.75;32.50;;;;;12.82;66.51;102648.13;6341332;22;45334;-79
2022/11/10 20:57:36;;;;;;;;;10.50;10.00;;;;;12.86;66.84;102650.88;6313093;22;46988;-79
2022/11/10 21:00:07;;;;;;;;;11.50;10.00;;;;;12.64;66.54;102615.22;6312796;22;45369;-80
2022/11/10 21:02:32;;;;;;;;;11.00;8.25;;;;;12.71;66.85;102621.50;6312492;22;45326;-79
2022/11/10 21:04:58;;;;;;;;;12.25;12.00;;;;;12.77;66.73;102627.78;6341322;22;45226;-80
2022/11/10 21:07:24;;;;;;;;;14.75;13.75;;;;;12.96;66.61;102657.19;6341655;22;46123;-80
2022/11/10 21:09:49;;;;;;;;;10.50;10.00;;;;;12.77;66.55;102626.91;6312930;22;45178;-79
2022/11/10 21:14:58;;;;;;;;;11.75;11.75;;;;;12.90;66.10;102663.25;6341287;22;45165;-80
2022/11/10 21:17:24;;;;;;;;;11.00;11.00;;;;;12.93;66.68;102659.78;6341000;22;45198;-80
2022/11/10 21:19:49;;;;;;;;;11.75;11.00;;;;;12.91;66.65;102654.47;6341594;22;45243;-79
2022/11/10 21:22:15;;;;;;;;;10.50;10.00;;;;;13.03;66.53;102669.66;6339622;22;45380;-80
2022/11/10 21:24:41;;;;;;;;;15.00;12.50;;;;;13.07;66.67;102657.38;6312810;22;45444;-80
2022/11/10 21:27:09;;;;;;;;;11.00;10.00;;;;;13.08;66.42;102667.97;6341417;22;46389;-77
2022/11/10 21:29:37;;;;;;;;;14.25;11.00;;;;;12.81;66.32;102618.19;6341028;22;45238;-80
2022/11/10 21:32:03;;;;;;;;;13.75;10.00;;;;;12.98;66.49;102650.19;6339608;22;45121;-79
2022/11/10 21:34:29;;;;;;;;;13.00;10.50;;;;;12.94;66.09;102630.75;6312994;22;45497;-78
2022/11/10 21:37:02;;;;;;;;;13.00;13.00;;;;;13.14;66.34;102665.44;6341332;22;45156;-79
2022/11/10 21:39:29;;;;;;;;;14.00;12.00;;;;;13.14;66.06;102670.72;6313089;22;45154;-79
2022/11/10 21:41:55;;;;;;;;;10.75;10.25;;;;;13.01;66.30;102648.47;6312768;22;45283;-79
2022/11/10 21:44:20;;;;;;;;;12.00;10.25;;;;;12.98;66.01;102648.41;6341656;22;45183;-78
2022/11/10 21:46:46;;;;;;;;;12.00;11.50;;;;;12.92;66.04;102637.75;6341247;22;45651;-79
2022/11/10 21:49:11;;;;;;;;;15.00;13.00;;;;;13.02;66.10;102662.59;6312643;22;45197;-78
2022/11/10 21:51:41;;;;;;;;;14.25;14.00;;;;;13.07;65.79;102678.53;6313225;22;45367;-78
2022/11/10 21:54:39;;;;;;;;;12.75;11.25;;;;;13.04;66.06;102679.34;6312104;22;45331;-81
2022/11/10 22:00:48;;;;;;;;;78.50;64.00;;;;;13.14;65.95;102688.34;6341485;22;45248;-87
2022/11/10 22:18:35;;;;;;;;;9.00;9.00;;;;;12.77;66.02;102640.13;6342886;22;45727;-81
2022/11/10 22:21:37;;;;;;;;;9.00;9.00;;;;;12.83;66.10;102681.63;6193231;22;46155;-81
2022/11/10 22:24:48;;;;;;;;;11.75;9.00;;;;;12.73;66.27;102668.25;6183976;22;45435;-82
2022/11/10 22:27:22;;;;;;;;;11.25;11.25;;;;;12.52;66.10;102649.34;6142420;22;45436;-79
2022/11/10 22:29:48;;;;;;;;;18.50;13.25;;;;;12.50;66.26;102649.31;6209849;22;45342;-78
2022/11/10 22:32:13;;;;;;;;;11.25;11.00;;;;;12.51;66.51;102652.84;6212552;22;46328;-78
2022/11/10 22:34:39;;;;;;;;;25.75;22.50;;;;;12.34;66.68;102628.75;6218466;22;45360;-79
2022/11/10 22:37:04;;;;;;;;;9.25;8.00;;;;;12.46;66.81;102662.47;6307166;22;45904;-78
2022/11/10 22:45:02;;;;;;;;;11.25;9.75;;;;;12.25;66.22;102634.75;6352944;22;45420;-78
2022/11/10 22:48:24;;;;;;;;;9.50;7.75;;;;;12.20;66.52;102644.31;6346654;22;45427;-78
2022/11/10 22:50:15;;;;;;;;;9.00;7.25;;;;;12.10;66.20;102623.88;6336098;22;45495;-79
2022/11/10 22:52:41;;;;;;;;;10.50;9.00;;;;;12.03;66.64;102637.78;6313240;22;48306;-79
2022/11/10 22:55:07;;;;;;;;;8.00;7.50;;;;;11.93;66.59;102635.84;6315666;22;45604;-79
2022/11/10 22:57:32;;;;;;;;;17.25;14.50;;;;;11.99;67.23;102650.06;6337071;22;45381;-78
2022/11/10 23:00:05;;;;;;;;;186.00;157.00;;;;;11.99;67.02;102655.31;6309559;22;45442;-82
2022/11/10 23:02:31;;;;;;;;;18.25;18.25;;;;;12.01;67.46;102672.09;6310245;22;47203;-78
2022/11/10 23:04:56;;;;;;;;;59.50;46.00;;;;;11.88;67.72;102648.94;6320901;22;45406;-79
2022/11/10 23:07:21;;;;;;;;;17.50;16.00;;;;;11.87;67.27;102648.06;6340870;22;45370;-78
2022/11/10 23:09:47;;;;;;;;;13.00;12.00;;;;;11.90;67.81;102648.13;6312919;22;45474;-78
2022/11/10 23:12:12;;;;;;;;;19.25;16.75;;;;;11.93;68.10;102660.50;6307856;22;46984;-79
2022/11/10 23:14:38;;;;;;;;;42.25;32.75;;;;;11.97;67.94;102680.78;6308824;22;45676;-79
2022/11/10 23:17:03;;;;;;;;;14.25;14.00;;;;;11.85;67.86;102655.00;6308717;22;45306;-77
2022/11/10 23:19:29;;;;;;;;;14.75;12.75;;;;;11.97;68.29;102677.28;6337145;22;45386;-79
2022/11/10 23:21:54;;;;;;;;;14.25;13.75;;;;;11.74;68.20;102635.41;6308345;22;48081;-79
2022/11/10 23:24:23;;;;;;;;;11.75;10.00;;;;;11.88;67.97;102663.03;6334382;22;45398;-79
2022/11/10 23:26:48;;;;;;;;;10.25;9.50;;;;;12.04;68.21;102693.28;6308211;22;45513;-80
2022/11/10 23:29:14;;;;;;;;;12.75;11.75;;;;;11.98;68.31;102669.41;6307241;22;45517;-79
2022/11/10 23:31:39;;;;;;;;;10.50;10.50;;;;;11.95;68.57;102663.16;6336850;22;46172;-79
2022/11/10 23:34:05;;;;;;;;;17.75;13.50;;;;;11.78;68.14;102631.97;6334677;22;45384;-79
2022/11/10 23:36:30;;;;;;;;;12.00;10.25;;;;;11.92;68.26;102661.31;6307476;22;45300;-80
2022/11/10 23:38:55;;;;;;;;;15.75;13.75;;;;;11.87;68.50;102653.34;6338603;22;45381;-78
2022/11/10 23:41:27;;;;;;;;;17.00;14.00;;;;;11.99;68.38;102663.25;6333796;22;47190;-79
2022/11/10 23:43:53;;;;;;;;;13.50;11.00;;;;;11.98;67.96;102661.47;6334218;22;45647;-80
2022/11/10 23:46:18;;;;;;;;;13.25;13.25;;;;;12.09;68.28;102653.78;6307788;22;45920;-79
2022/11/10 23:48:44;;;;;;;;;10.25;10.25;;;;;11.99;68.22;102649.16;6307695;22;45468;-79
2022/11/10 23:51:11;;;;;;;;;9.50;9.50;;;;;12.03;67.96;102641.34;6336033;22;45676;-79
2022/11/10 23:53:37;;;;;;;;;10.50;10.50;;;;;11.87;67.79;102618.13;6307849;22;45404;-80
2022/11/10 23:56:06;;;;;;;;;12.50;12.00;;;;;11.93;68.02;102622.66;6334422;22;45381;-78
2022/11/10 23:58:32;;;;;;;;;10.25;10.25;;;;;11.87;67.77;102612.88;6336963;22;45407;-78
